sensor_id;sensor_type;location;lat;lon;timestamp;temperature;humidity
59975;DHT22;62136;-35.664;-63.766;2023-02-21T00:00:31;27.90;35.10
59975;DHT22;62136;-35.664;-63.766;2023-02-21T00:03:16;27.80;35.00
59975;DHT22;62136;-35.664;-63.766;2023-02-21T00:05:56;27.80;35.00
59975;DHT22;62136;-35.664;-63.766;2023-02-21T00:08:41;27.80;35.00
59975;DHT22;62136;-35.664;-63.766;2023-02-21T00:11:26;27.80;35.00
59975;DHT22;62136;-35.664;-63.766;2023-02-21T00:14:11;27.80;35.00
59975;DHT22;62136;-35.664;-63.766;2023-02-21T00:16:56;27.80;35.00
59975;DHT22;62136;-35.664;-63.766;2023-02-21T00:19:41;27.70;35.00
59975;DHT22;62136;-35.664;-63.766;2023-02-21T00:22:26;27.70;35.00
59975;DHT22;62136;-35.664;-63.766;2023-02-21T00:25:11;27.70;35.10
59975;DHT22;62136;-35.664;-63.766;2023-02-21T00:27:59;27.70;35.10
59975;DHT22;62136;-35.664;-63.766;2023-02-21T00:30:44;27.70;35.10
59975;DHT22;62136;-35.664;-63.766;2023-02-21T00:33:30;27.70;35.20
59975;DHT22;62136;-35.664;-63.766;2023-02-21T00:36:08;27.70;35.20
59975;DHT22;62136;-35.664;-63.766;2023-02-21T00:38:53;27.70;35.20
59975;DHT22;62136;-35.664;-63.766;2023-02-21T00:41:38;27.60;35.70
59975;DHT22;62136;-35.664;-63.766;2023-02-21T00:44:23;27.60;35.20
59975;DHT22;62136;-35.664;-63.766;2023-02-21T00:47:08;27.60;35.20
59975;DHT22;62136;-35.664;-63.766;2023-02-21T00:49:53;27.60;35.20
59975;DHT22;62136;-35.664;-63.766;2023-02-21T00:52:38;27.60;35.30
59975;DHT22;62136;-35.664;-63.766;2023-02-21T00:55:23;27.60;35.40
59975;DHT22;62136;-35.664;-63.766;2023-02-21T00:58:08;27.60;35.40
59975;DHT22;62136;-35.664;-63.766;2023-02-21T01:00:53;27.60;35.30
59975;DHT22;62136;-35.664;-63.766;2023-02-21T01:03:38;27.50;35.30
59975;DHT22;62136;-35.664;-63.766;2023-02-21T01:06:19;27.60;35.40
59975;DHT22;62136;-35.664;-63.766;2023-02-21T01:09:04;27.50;35.30
59975;DHT22;62136;-35.664;-63.766;2023-02-21T01:11:49;27.50;35.40
59975;DHT22;62136;-35.664;-63.766;2023-02-21T01:14:34;27.50;35.40
59975;DHT22;62136;-35.664;-63.766;2023-02-21T01:17:20;27.50;35.40
59975;DHT22;62136;-35.664;-63.766;2023-02-21T01:20:05;27.50;35.40
59975;DHT22;62136;-35.664;-63.766;2023-02-21T01:22:51;27.40;35.50
59975;DHT22;62136;-35.664;-63.766;2023-02-21T01:25:36;27.40;35.50
59975;DHT22;62136;-35.664;-63.766;2023-02-21T01:28:21;27.40;35.50
59975;DHT22;62136;-35.664;-63.766;2023-02-21T01:31:06;27.40;35.50
59975;DHT22;62136;-35.664;-63.766;2023-02-21T01:33:51;27.40;35.60
59975;DHT22;62136;-35.664;-63.766;2023-02-21T01:36:39;27.40;35.60
59975;DHT22;62136;-35.664;-63.766;2023-02-21T01:39:24;27.30;35.50
59975;DHT22;62136;-35.664;-63.766;2023-02-21T01:42:09;27.30;35.50
59975;DHT22;62136;-35.664;-63.766;2023-02-21T01:48:16;27.30;35.60
59975;DHT22;62136;-35.664;-63.766;2023-02-21T01:51:03;27.30;35.70
59975;DHT22;62136;-35.664;-63.766;2023-02-21T01:53:49;27.30;35.70
59975;DHT22;62136;-35.664;-63.766;2023-02-21T01:56:35;27.20;35.60
59975;DHT22;62136;-35.664;-63.766;2023-02-21T01:59:22;27.20;35.70
59975;DHT22;62136;-35.664;-63.766;2023-02-21T02:02:21;27.20;35.80
59975;DHT22;62136;-35.664;-63.766;2023-02-21T02:05:10;27.20;35.80
59975;DHT22;62136;-35.664;-63.766;2023-02-21T02:07:59;27.10;35.80
59975;DHT22;62136;-35.664;-63.766;2023-02-21T02:10:45;27.10;35.80
59975;DHT22;62136;-35.664;-63.766;2023-02-21T02:18:59;27.00;35.90
59975;DHT22;62136;-35.664;-63.766;2023-02-21T02:35:53;26.90;35.90
59975;DHT22;62136;-35.664;-63.766;2023-02-21T02:44:34;26.90;36.00
59975;DHT22;62136;-35.664;-63.766;2023-02-21T02:47:05;26.90;36.10
59975;DHT22;62136;-35.664;-63.766;2023-02-21T02:49:37;26.90;36.10
59975;DHT22;62136;-35.664;-63.766;2023-02-21T02:52:08;26.90;36.20
59975;DHT22;62136;-35.664;-63.766;2023-02-21T02:54:38;26.80;36.20
59975;DHT22;62136;-35.664;-63.766;2023-02-21T02:57:07;26.80;36.20
59975;DHT22;62136;-35.664;-63.766;2023-02-21T02:59:42;26.80;36.20
59975;DHT22;62136;-35.664;-63.766;2023-02-21T03:10:54;26.80;36.30
59975;DHT22;62136;-35.664;-63.766;2023-02-21T03:18:57;26.70;36.40
59975;DHT22;62136;-35.664;-63.766;2023-02-21T03:21:31;26.70;36.40
59975;DHT22;62136;-35.664;-63.766;2023-02-21T03:24:03;26.70;36.40
59975;DHT22;62136;-35.664;-63.766;2023-02-21T03:26:34;26.70;36.50
59975;DHT22;62136;-35.664;-63.766;2023-02-21T03:29:02;26.70;36.70
59975;DHT22;62136;-35.664;-63.766;2023-02-21T03:31:34;26.70;36.50
59975;DHT22;62136;-35.664;-63.766;2023-02-21T03:34:06;26.60;36.50
59975;DHT22;62136;-35.664;-63.766;2023-02-21T03:36:42;26.60;36.20
59975;DHT22;62136;-35.664;-63.766;2023-02-21T03:39:09;26.60;36.60
59975;DHT22;62136;-35.664;-63.766;2023-02-21T03:41:36;26.60;36.60
59975;DHT22;62136;-35.664;-63.766;2023-02-21T03:44:03;26.50;36.50
59975;DHT22;62136;-35.664;-63.766;2023-02-21T03:46:30;26.50;36.50
59975;DHT22;62136;-35.664;-63.766;2023-02-21T03:48:57;26.50;36.50
59975;DHT22;62136;-35.664;-63.766;2023-02-21T03:51:24;26.50;36.50
59975;DHT22;62136;-35.664;-63.766;2023-02-21T03:53:51;26.50;36.70
59975;DHT22;62136;-35.664;-63.766;2023-02-21T03:56:18;26.50;36.70
59975;DHT22;62136;-35.664;-63.766;2023-02-21T03:58:48;26.40;36.90
59975;DHT22;62136;-35.664;-63.766;2023-02-21T04:01:15;26.50;36.70
59975;DHT22;62136;-35.664;-63.766;2023-02-21T04:03:42;26.40;36.70
59975;DHT22;62136;-35.664;-63.766;2023-02-21T04:06:09;26.40;36.70
59975;DHT22;62136;-35.664;-63.766;2023-02-21T04:08:36;26.40;36.60
59975;DHT22;62136;-35.664;-63.766;2023-02-21T04:11:03;26.40;36.70
59975;DHT22;62136;-35.664;-63.766;2023-02-21T04:13:30;26.30;36.80
59975;DHT22;62136;-35.664;-63.766;2023-02-21T04:15:57;26.30;36.80
59975;DHT22;62136;-35.664;-63.766;2023-02-21T04:18:24;26.30;36.80
59975;DHT22;62136;-35.664;-63.766;2023-02-21T04:20:51;26.30;36.80
59975;DHT22;62136;-35.664;-63.766;2023-02-21T04:23:20;26.30;36.80
59975;DHT22;62136;-35.664;-63.766;2023-02-21T04:25:47;26.30;36.80
59975;DHT22;62136;-35.664;-63.766;2023-02-21T04:28:14;26.20;36.70
59975;DHT22;62136;-35.664;-63.766;2023-02-21T04:30:41;26.30;36.90
59975;DHT22;62136;-35.664;-63.766;2023-02-21T04:33:08;26.30;36.90
59975;DHT22;62136;-35.664;-63.766;2023-02-21T04:35:35;26.20;36.90
59975;DHT22;62136;-35.664;-63.766;2023-02-21T04:38:02;26.20;36.90
59975;DHT22;62136;-35.664;-63.766;2023-02-21T04:40:29;26.20;36.90
59975;DHT22;62136;-35.664;-63.766;2023-02-21T04:42:56;26.20;37.00
59975;DHT22;62136;-35.664;-63.766;2023-02-21T04:45:23;26.20;37.10
59975;DHT22;62136;-35.664;-63.766;2023-02-21T04:47:50;26.10;37.00
59975;DHT22;62136;-35.664;-63.766;2023-02-21T04:50:18;26.20;37.10
59975;DHT22;62136;-35.664;-63.766;2023-02-21T04:52:46;26.10;37.00
59975;DHT22;62136;-35.664;-63.766;2023-02-21T04:55:14;26.10;37.10
59975;DHT22;62136;-35.664;-63.766;2023-02-21T04:57:41;26.10;37.20
59975;DHT22;62136;-35.664;-63.766;2023-02-21T05:00:10;26.10;37.10
59975;DHT22;62136;-35.664;-63.766;2023-02-21T05:02:38;26.10;37.10
59975;DHT22;62136;-35.664;-63.766;2023-02-21T05:05:08;26.00;37.10
59975;DHT22;62136;-35.664;-63.766;2023-02-21T05:07:35;26.10;37.10
59975;DHT22;62136;-35.664;-63.766;2023-02-21T05:10:02;26.00;37.20
59975;DHT22;62136;-35.664;-63.766;2023-02-21T05:12:31;26.00;37.20
59975;DHT22;62136;-35.664;-63.766;2023-02-21T05:14:58;26.00;37.20
59975;DHT22;62136;-35.664;-63.766;2023-02-21T05:17:25;26.00;37.20
59975;DHT22;62136;-35.664;-63.766;2023-02-21T05:19:53;25.90;37.30
59975;DHT22;62136;-35.664;-63.766;2023-02-21T05:22:20;25.90;37.20
59975;DHT22;62136;-35.664;-63.766;2023-02-21T05:24:47;25.90;37.20
59975;DHT22;62136;-35.664;-63.766;2023-02-21T05:27:18;25.90;37.20
59975;DHT22;62136;-35.664;-63.766;2023-02-21T05:29:52;25.90;37.30
59975;DHT22;62136;-35.664;-63.766;2023-02-21T05:32:22;25.90;37.30
59975;DHT22;62136;-35.664;-63.766;2023-02-21T05:34:49;25.90;37.40
59975;DHT22;62136;-35.664;-63.766;2023-02-21T05:37:17;25.90;37.30
59975;DHT22;62136;-35.664;-63.766;2023-02-21T05:39:46;25.90;37.30
59975;DHT22;62136;-35.664;-63.766;2023-02-21T05:42:13;25.90;37.30
59975;DHT22;62136;-35.664;-63.766;2023-02-21T05:44:43;25.90;37.40
59975;DHT22;62136;-35.664;-63.766;2023-02-21T05:47:11;25.80;37.30
59975;DHT22;62136;-35.664;-63.766;2023-02-21T05:49:39;25.80;37.40
59975;DHT22;62136;-35.664;-63.766;2023-02-21T05:52:09;25.80;37.30
59975;DHT22;62136;-35.664;-63.766;2023-02-21T05:54:37;25.80;37.40
59975;DHT22;62136;-35.664;-63.766;2023-02-21T05:57:04;25.80;37.40
59975;DHT22;62136;-35.664;-63.766;2023-02-21T05:59:31;25.80;37.40
59975;DHT22;62136;-35.664;-63.766;2023-02-21T06:01:59;25.80;37.50
59975;DHT22;62136;-35.664;-63.766;2023-02-21T06:04:26;25.80;37.50
59975;DHT22;62136;-35.664;-63.766;2023-02-21T06:06:53;25.80;37.50
59975;DHT22;62136;-35.664;-63.766;2023-02-21T06:09:20;25.70;37.50
59975;DHT22;62136;-35.664;-63.766;2023-02-21T06:11:47;25.70;37.50
59975;DHT22;62136;-35.664;-63.766;2023-02-21T06:14:19;25.70;37.50
59975;DHT22;62136;-35.664;-63.766;2023-02-21T06:16:47;25.70;37.50
59975;DHT22;62136;-35.664;-63.766;2023-02-21T06:19:14;25.70;38.10
59975;DHT22;62136;-35.664;-63.766;2023-02-21T06:21:44;25.70;37.50
59975;DHT22;62136;-35.664;-63.766;2023-02-21T06:24:12;25.60;37.60
59975;DHT22;62136;-35.664;-63.766;2023-02-21T06:26:39;25.60;37.60
59975;DHT22;62136;-35.664;-63.766;2023-02-21T06:29:11;25.60;37.50
59975;DHT22;62136;-35.664;-63.766;2023-02-21T06:31:38;25.60;37.60
59975;DHT22;62136;-35.664;-63.766;2023-02-21T06:34:05;25.60;37.80
59975;DHT22;62136;-35.664;-63.766;2023-02-21T06:36:33;25.50;37.60
59975;DHT22;62136;-35.664;-63.766;2023-02-21T06:39:00;25.60;37.70
59975;DHT22;62136;-35.664;-63.766;2023-02-21T06:41:29;25.60;37.70
59975;DHT22;62136;-35.664;-63.766;2023-02-21T06:43:58;25.60;37.70
59975;DHT22;62136;-35.664;-63.766;2023-02-21T06:46:28;25.50;37.70
59975;DHT22;62136;-35.664;-63.766;2023-02-21T06:48:55;25.50;37.70
59975;DHT22;62136;-35.664;-63.766;2023-02-21T06:51:22;25.50;37.70
59975;DHT22;62136;-35.664;-63.766;2023-02-21T06:53:55;25.50;37.70
59975;DHT22;62136;-35.664;-63.766;2023-02-21T06:56:23;25.50;37.70
59975;DHT22;62136;-35.664;-63.766;2023-02-21T06:58:50;25.50;37.70
59975;DHT22;62136;-35.664;-63.766;2023-02-21T07:01:17;25.50;37.80
59975;DHT22;62136;-35.664;-63.766;2023-02-21T07:03:44;25.50;37.70
59975;DHT22;62136;-35.664;-63.766;2023-02-21T07:06:12;25.50;37.70
59975;DHT22;62136;-35.664;-63.766;2023-02-21T07:08:39;25.50;37.70
59975;DHT22;62136;-35.664;-63.766;2023-02-21T07:11:07;25.50;37.70
59975;DHT22;62136;-35.664;-63.766;2023-02-21T07:13:34;25.50;37.80
59975;DHT22;62136;-35.664;-63.766;2023-02-21T07:16:01;25.50;37.80
59975;DHT22;62136;-35.664;-63.766;2023-02-21T07:18:29;25.50;37.60
59975;DHT22;62136;-35.664;-63.766;2023-02-21T07:20:56;25.50;37.80
59975;DHT22;62136;-35.664;-63.766;2023-02-21T07:23:23;25.40;37.50
59975;DHT22;62136;-35.664;-63.766;2023-02-21T07:25:50;25.50;37.80
59975;DHT22;62136;-35.664;-63.766;2023-02-21T07:28:17;25.40;37.60
59975;DHT22;62136;-35.664;-63.766;2023-02-21T07:30:44;25.40;37.70
59975;DHT22;62136;-35.664;-63.766;2023-02-21T07:33:11;25.40;37.70
59975;DHT22;62136;-35.664;-63.766;2023-02-21T07:35:39;25.40;37.70
59975;DHT22;62136;-35.664;-63.766;2023-02-21T07:38:06;25.40;37.60
59975;DHT22;62136;-35.664;-63.766;2023-02-21T07:40:32;25.40;37.50
59975;DHT22;62136;-35.664;-63.766;2023-02-21T07:43:00;25.40;37.90
59975;DHT22;62136;-35.664;-63.766;2023-02-21T07:45:27;25.40;37.80
59975;DHT22;62136;-35.664;-63.766;2023-02-21T07:47:55;25.30;38.00
59975;DHT22;62136;-35.664;-63.766;2023-02-21T07:50:22;25.30;37.90
59975;DHT22;62136;-35.664;-63.766;2023-02-21T07:52:49;25.30;37.90
59975;DHT22;62136;-35.664;-63.766;2023-02-21T07:55:16;25.30;38.00
59975;DHT22;62136;-35.664;-63.766;2023-02-21T07:57:44;25.30;37.90
59975;DHT22;62136;-35.664;-63.766;2023-02-21T08:00:12;25.30;37.70
59975;DHT22;62136;-35.664;-63.766;2023-02-21T08:02:39;25.30;37.80
59975;DHT22;62136;-35.664;-63.766;2023-02-21T08:05:07;25.30;37.70
59975;DHT22;62136;-35.664;-63.766;2023-02-21T08:07:34;25.30;37.90
59975;DHT22;62136;-35.664;-63.766;2023-02-21T08:10:01;25.20;37.90
59975;DHT22;62136;-35.664;-63.766;2023-02-21T08:12:28;25.20;38.00
59975;DHT22;62136;-35.664;-63.766;2023-02-21T08:14:55;25.20;37.80
59975;DHT22;62136;-35.664;-63.766;2023-02-21T08:17:22;25.20;38.00
59975;DHT22;62136;-35.664;-63.766;2023-02-21T08:19:49;25.20;37.80
59975;DHT22;62136;-35.664;-63.766;2023-02-21T08:22:22;25.20;37.90
59975;DHT22;62136;-35.664;-63.766;2023-02-21T08:24:53;25.20;38.00
59975;DHT22;62136;-35.664;-63.766;2023-02-21T08:27:20;25.20;38.10
59975;DHT22;62136;-35.664;-63.766;2023-02-21T08:29:50;25.10;37.90
59975;DHT22;62136;-35.664;-63.766;2023-02-21T08:32:18;25.10;37.90
59975;DHT22;62136;-35.664;-63.766;2023-02-21T08:34:46;25.10;37.90
59975;DHT22;62136;-35.664;-63.766;2023-02-21T08:37:14;25.10;38.10
59975;DHT22;62136;-35.664;-63.766;2023-02-21T08:39:47;25.10;38.30
59975;DHT22;62136;-35.664;-63.766;2023-02-21T08:42:15;25.10;38.20
59975;DHT22;62136;-35.664;-63.766;2023-02-21T08:44:47;25.00;37.90
59975;DHT22;62136;-35.664;-63.766;2023-02-21T08:47:15;25.00;38.00
59975;DHT22;62136;-35.664;-63.766;2023-02-21T08:49:46;25.00;38.00
59975;DHT22;62136;-35.664;-63.766;2023-02-21T08:52:14;25.00;38.30
59975;DHT22;62136;-35.664;-63.766;2023-02-21T08:54:45;25.00;38.30
59975;DHT22;62136;-35.664;-63.766;2023-02-21T08:57:12;25.00;38.30
59975;DHT22;62136;-35.664;-63.766;2023-02-21T08:59:43;24.90;38.00
59975;DHT22;62136;-35.664;-63.766;2023-02-21T09:02:20;25.00;38.30
59975;DHT22;62136;-35.664;-63.766;2023-02-21T09:04:48;25.00;38.30
59975;DHT22;62136;-35.664;-63.766;2023-02-21T09:07:17;24.90;38.40
59975;DHT22;62136;-35.664;-63.766;2023-02-21T09:09:44;24.90;38.20
59975;DHT22;62136;-35.664;-63.766;2023-02-21T09:12:12;24.90;38.40
59975;DHT22;62136;-35.664;-63.766;2023-02-21T09:14:41;24.90;38.30
59975;DHT22;62136;-35.664;-63.766;2023-02-21T09:17:11;24.90;38.20
59975;DHT22;62136;-35.664;-63.766;2023-02-21T09:19:39;24.90;38.40
59975;DHT22;62136;-35.664;-63.766;2023-02-21T09:22:08;24.80;38.40
59975;DHT22;62136;-35.664;-63.766;2023-02-21T09:24:35;24.80;38.30
59975;DHT22;62136;-35.664;-63.766;2023-02-21T09:27:03;24.80;38.40
59975;DHT22;62136;-35.664;-63.766;2023-02-21T09:29:32;24.80;38.40
59975;DHT22;62136;-35.664;-63.766;2023-02-21T09:32:00;24.80;38.50
59975;DHT22;62136;-35.664;-63.766;2023-02-21T09:34:28;24.70;38.50
59975;DHT22;62136;-35.664;-63.766;2023-02-21T09:36:55;24.70;38.50
59975;DHT22;62136;-35.664;-63.766;2023-02-21T09:39:23;24.70;38.50
59975;DHT22;62136;-35.664;-63.766;2023-02-21T09:41:51;24.70;38.40
59975;DHT22;62136;-35.664;-63.766;2023-02-21T09:44:24;24.70;38.50
59975;DHT22;62136;-35.664;-63.766;2023-02-21T09:46:57;24.70;38.70
59975;DHT22;62136;-35.664;-63.766;2023-02-21T09:49:34;24.70;38.30
59975;DHT22;62136;-35.664;-63.766;2023-02-21T09:52:02;24.70;38.70
59975;DHT22;62136;-35.664;-63.766;2023-02-21T09:54:42;24.70;38.60
59975;DHT22;62136;-35.664;-63.766;2023-02-21T09:57:14;24.60;38.70
59975;DHT22;62136;-35.664;-63.766;2023-02-21T09:59:41;24.60;38.50
59975;DHT22;62136;-35.664;-63.766;2023-02-21T10:10:25;24.50;38.70
59975;DHT22;62136;-35.664;-63.766;2023-02-21T10:18:37;24.50;38.70
59975;DHT22;62136;-35.664;-63.766;2023-02-21T10:21:39;24.50;38.60
59975;DHT22;62136;-35.664;-63.766;2023-02-21T10:24:22;24.50;38.90
59975;DHT22;62136;-35.664;-63.766;2023-02-21T10:27:06;24.50;38.90
59975;DHT22;62136;-35.664;-63.766;2023-02-21T10:29:53;24.50;38.80
59975;DHT22;62136;-35.664;-63.766;2023-02-21T10:32:22;24.50;38.70
59975;DHT22;62136;-35.664;-63.766;2023-02-21T10:34:51;24.50;38.90
59975;DHT22;62136;-35.664;-63.766;2023-02-21T10:37:30;24.40;38.90
59975;DHT22;62136;-35.664;-63.766;2023-02-21T10:40:50;24.40;38.90
59975;DHT22;62136;-35.664;-63.766;2023-02-21T10:46:00;24.40;39.00
59975;DHT22;62136;-35.664;-63.766;2023-02-21T10:48:37;24.40;38.90
59975;DHT22;62136;-35.664;-63.766;2023-02-21T10:51:10;24.40;39.00
59975;DHT22;62136;-35.664;-63.766;2023-02-21T10:53:43;24.40;39.00
59975;DHT22;62136;-35.664;-63.766;2023-02-21T10:59:05;24.40;38.80
59975;DHT22;62136;-35.664;-63.766;2023-02-21T11:01:43;24.40;39.00
59975;DHT22;62136;-35.664;-63.766;2023-02-21T11:06:56;24.40;39.00
59975;DHT22;62136;-35.664;-63.766;2023-02-21T11:17:29;24.40;39.00
59975;DHT22;62136;-35.664;-63.766;2023-02-21T11:20:15;24.40;39.00
59975;DHT22;62136;-35.664;-63.766;2023-02-21T11:22:45;24.40;39.00
59975;DHT22;62136;-35.664;-63.766;2023-02-21T11:25:28;24.40;39.10
59975;DHT22;62136;-35.664;-63.766;2023-02-21T11:31:05;24.40;39.50
59975;DHT22;62136;-35.664;-63.766;2023-02-21T11:33:37;24.40;39.00
59975;DHT22;62136;-35.664;-63.766;2023-02-21T11:36:12;24.40;39.00
59975;DHT22;62136;-35.664;-63.766;2023-02-21T11:39:16;24.40;39.00
59975;DHT22;62136;-35.664;-63.766;2023-02-21T11:41:57;24.40;39.00
59975;DHT22;62136;-35.664;-63.766;2023-02-21T11:44:40;24.50;39.10
59975;DHT22;62136;-35.664;-63.766;2023-02-21T11:53:00;24.50;39.00
59975;DHT22;62136;-35.664;-63.766;2023-02-21T11:55:29;24.60;39.00
59975;DHT22;62136;-35.664;-63.766;2023-02-21T11:58:14;24.50;39.00
59975;DHT22;62136;-35.664;-63.766;2023-02-21T12:03:58;24.60;38.90
59975;DHT22;62136;-35.664;-63.766;2023-02-21T12:28:46;24.70;38.70
59975;DHT22;62136;-35.664;-63.766;2023-02-21T12:31:24;24.70;38.90
59975;DHT22;62136;-35.664;-63.766;2023-02-21T12:47:27;24.80;38.70
59975;DHT22;62136;-35.664;-63.766;2023-02-21T12:55:03;24.90;38.60
59975;DHT22;62136;-35.664;-63.766;2023-02-21T12:57:35;24.90;38.60
59975;DHT22;62136;-35.664;-63.766;2023-02-21T13:00:17;24.90;38.50
59975;DHT22;62136;-35.664;-63.766;2023-02-21T13:03:49;24.90;38.60
59975;DHT22;62136;-35.664;-63.766;2023-02-21T13:06:01;25.00;38.70
59975;DHT22;62136;-35.664;-63.766;2023-02-21T13:08:39;25.00;38.50
59975;DHT22;62136;-35.664;-63.766;2023-02-21T13:14:03;25.10;38.80
59975;DHT22;62136;-35.664;-63.766;2023-02-21T13:16:34;25.10;38.70
59975;DHT22;62136;-35.664;-63.766;2023-02-21T13:19:08;25.10;38.50
59975;DHT22;62136;-35.664;-63.766;2023-02-21T13:21:58;25.10;38.50
59975;DHT22;62136;-35.664;-63.766;2023-02-21T13:29:49;25.20;38.80
59975;DHT22;62136;-35.664;-63.766;2023-02-21T13:32:18;25.20;38.60
59975;DHT22;62136;-35.664;-63.766;2023-02-21T13:34:53;25.20;38.60
59975;DHT22;62136;-35.664;-63.766;2023-02-21T13:37:25;25.20;38.70
59975;DHT22;62136;-35.664;-63.766;2023-02-21T13:40:39;25.30;38.60
59975;DHT22;62136;-35.664;-63.766;2023-02-21T13:42:57;25.30;38.70
59975;DHT22;62136;-35.664;-63.766;2023-02-21T13:45:26;25.30;38.60
59975;DHT22;62136;-35.664;-63.766;2023-02-21T13:50:43;25.40;38.70
59975;DHT22;62136;-35.664;-63.766;2023-02-21T13:53:31;25.40;39.20
59975;DHT22;62136;-35.664;-63.766;2023-02-21T13:58:37;25.50;38.80
59975;DHT22;62136;-35.664;-63.766;2023-02-21T14:03:56;25.50;38.70
59975;DHT22;62136;-35.664;-63.766;2023-02-21T14:06:35;25.50;38.60
59975;DHT22;62136;-35.664;-63.766;2023-02-21T14:09:10;25.60;38.70
59975;DHT22;62136;-35.664;-63.766;2023-02-21T14:11:45;25.60;38.70
59975;DHT22;62136;-35.664;-63.766;2023-02-21T14:14:34;25.70;38.90
59975;DHT22;62136;-35.664;-63.766;2023-02-21T14:17:09;25.70;38.70
59975;DHT22;62136;-35.664;-63.766;2023-02-21T14:19:48;25.70;38.60
59975;DHT22;62136;-35.664;-63.766;2023-02-21T14:22:28;25.80;38.70
59975;DHT22;62136;-35.664;-63.766;2023-02-21T14:25:17;25.80;38.70
59975;DHT22;62136;-35.664;-63.766;2023-02-21T14:27:45;25.80;38.70
59975;DHT22;62136;-35.664;-63.766;2023-02-21T14:32:49;25.90;38.60
59975;DHT22;62136;-35.664;-63.766;2023-02-21T14:35:35;25.90;38.60
59975;DHT22;62136;-35.664;-63.766;2023-02-21T14:38:06;25.90;38.60
59975;DHT22;62136;-35.664;-63.766;2023-02-21T14:52:25;26.10;38.60
59975;DHT22;62136;-35.664;-63.766;2023-02-21T15:03:18;26.20;38.50
59975;DHT22;62136;-35.664;-63.766;2023-02-21T15:05:55;26.30;38.50
59975;DHT22;62136;-35.664;-63.766;2023-02-21T15:08:26;26.30;38.50
59975;DHT22;62136;-35.664;-63.766;2023-02-21T15:11:00;26.30;38.50
59975;DHT22;62136;-35.664;-63.766;2023-02-21T15:13:33;26.30;38.40
59975;DHT22;62136;-35.664;-63.766;2023-02-21T15:16:04;26.40;38.50
59975;DHT22;62136;-35.664;-63.766;2023-02-21T15:18:37;26.40;38.40
59975;DHT22;62136;-35.664;-63.766;2023-02-21T15:23:43;26.50;38.50
59975;DHT22;62136;-35.664;-63.766;2023-02-21T15:26:19;26.50;38.40
59975;DHT22;62136;-35.664;-63.766;2023-02-21T15:36:50;26.60;38.30
59975;DHT22;62136;-35.664;-63.766;2023-02-21T15:39:39;26.70;38.30
59975;DHT22;62136;-35.664;-63.766;2023-02-21T15:42:10;26.70;38.40
59975;DHT22;62136;-35.664;-63.766;2023-02-21T15:44:48;26.70;38.30
59975;DHT22;62136;-35.664;-63.766;2023-02-21T15:47:22;26.70;38.30
59975;DHT22;62136;-35.664;-63.766;2023-02-21T15:50:06;26.70;38.70
59975;DHT22;62136;-35.664;-63.766;2023-02-21T15:52:40;26.80;38.30
59975;DHT22;62136;-35.664;-63.766;2023-02-21T16:00:47;26.80;38.30
59975;DHT22;62136;-35.664;-63.766;2023-02-21T16:03:40;26.90;38.30
59975;DHT22;62136;-35.664;-63.766;2023-02-21T16:06:30;26.90;38.30
59975;DHT22;62136;-35.664;-63.766;2023-02-21T16:09:19;26.90;38.20
59975;DHT22;62136;-35.664;-63.766;2023-02-21T16:16:53;27.00;38.10
59975;DHT22;62136;-35.664;-63.766;2023-02-21T16:19:23;27.10;38.20
59975;DHT22;62136;-35.664;-63.766;2023-02-21T16:22:08;27.10;38.30
59975;DHT22;62136;-35.664;-63.766;2023-02-21T16:24:35;27.10;38.20
59975;DHT22;62136;-35.664;-63.766;2023-02-21T16:27:08;27.10;38.10
59975;DHT22;62136;-35.664;-63.766;2023-02-21T16:29:35;27.10;38.10
59975;DHT22;62136;-35.664;-63.766;2023-02-21T16:32:02;27.20;38.10
59975;DHT22;62136;-35.664;-63.766;2023-02-21T16:34:31;27.20;38.10
59975;DHT22;62136;-35.664;-63.766;2023-02-21T16:37:07;27.30;38.10
59975;DHT22;62136;-35.664;-63.766;2023-02-21T16:39:35;27.30;38.20
59975;DHT22;62136;-35.664;-63.766;2023-02-21T16:42:02;27.30;38.10
59975;DHT22;62136;-35.664;-63.766;2023-02-21T16:44:29;27.30;38.00
59975;DHT22;62136;-35.664;-63.766;2023-02-21T16:46:56;27.30;38.00
59975;DHT22;62136;-35.664;-63.766;2023-02-21T16:49:24;27.40;38.10
59975;DHT22;62136;-35.664;-63.766;2023-02-21T16:51:51;27.40;38.00
59975;DHT22;62136;-35.664;-63.766;2023-02-21T16:54:18;27.40;38.00
59975;DHT22;62136;-35.664;-63.766;2023-02-21T16:56:48;27.40;37.90
59975;DHT22;62136;-35.664;-63.766;2023-02-21T16:59:19;27.40;37.90
59975;DHT22;62136;-35.664;-63.766;2023-02-21T17:01:47;27.50;37.90
59975;DHT22;62136;-35.664;-63.766;2023-02-21T17:04:20;27.50;37.90
59975;DHT22;62136;-35.664;-63.766;2023-02-21T17:07:02;27.50;37.90
59975;DHT22;62136;-35.664;-63.766;2023-02-21T17:09:29;27.50;37.80
59975;DHT22;62136;-35.664;-63.766;2023-02-21T17:12:05;27.60;38.00
59975;DHT22;62136;-35.664;-63.766;2023-02-21T17:14:33;27.60;37.90
59975;DHT22;62136;-35.664;-63.766;2023-02-21T17:17:00;27.60;37.90
59975;DHT22;62136;-35.664;-63.766;2023-02-21T17:19:27;27.60;37.80
59975;DHT22;62136;-35.664;-63.766;2023-02-21T17:21:54;27.60;37.70
59975;DHT22;62136;-35.664;-63.766;2023-02-21T17:24:23;27.70;37.80
59975;DHT22;62136;-35.664;-63.766;2023-02-21T17:26:52;27.70;37.80
59975;DHT22;62136;-35.664;-63.766;2023-02-21T17:29:19;27.70;37.80
59975;DHT22;62136;-35.664;-63.766;2023-02-21T17:31:50;27.70;37.70
59975;DHT22;62136;-35.664;-63.766;2023-02-21T17:34:17;27.80;37.70
59975;DHT22;62136;-35.664;-63.766;2023-02-21T17:36:48;27.80;38.20
59975;DHT22;62136;-35.664;-63.766;2023-02-21T17:39:16;27.80;37.80
59975;DHT22;62136;-35.664;-63.766;2023-02-21T17:41:51;27.80;37.60
59975;DHT22;62136;-35.664;-63.766;2023-02-21T17:44:18;27.80;37.60
59975;DHT22;62136;-35.664;-63.766;2023-02-21T17:46:47;27.90;38.10
59975;DHT22;62136;-35.664;-63.766;2023-02-21T17:49:20;27.90;37.60
59975;DHT22;62136;-35.664;-63.766;2023-02-21T17:51:48;27.90;37.50
59975;DHT22;62136;-35.664;-63.766;2023-02-21T17:54:16;27.90;37.50
59975;DHT22;62136;-35.664;-63.766;2023-02-21T17:56:44;27.90;37.50
59975;DHT22;62136;-35.664;-63.766;2023-02-21T17:59:12;28.00;37.50
59975;DHT22;62136;-35.664;-63.766;2023-02-21T18:01:39;28.00;37.50
59975;DHT22;62136;-35.664;-63.766;2023-02-21T18:04:07;28.00;37.50
59975;DHT22;62136;-35.664;-63.766;2023-02-21T18:06:34;28.10;37.50
59975;DHT22;62136;-35.664;-63.766;2023-02-21T18:09:02;28.10;37.50
59975;DHT22;62136;-35.664;-63.766;2023-02-21T18:11:34;28.10;37.40
59975;DHT22;62136;-35.664;-63.766;2023-02-21T18:14:02;28.10;37.40
59975;DHT22;62136;-35.664;-63.766;2023-02-21T18:16:29;28.10;37.40
59975;DHT22;62136;-35.664;-63.766;2023-02-21T18:18:57;28.20;37.30
59975;DHT22;62136;-35.664;-63.766;2023-02-21T18:21:24;28.20;37.40
59975;DHT22;62136;-35.664;-63.766;2023-02-21T18:23:52;28.20;37.30
59975;DHT22;62136;-35.664;-63.766;2023-02-21T18:26:19;28.20;37.20
59975;DHT22;62136;-35.664;-63.766;2023-02-21T18:28:47;28.20;37.20